Map

Track Data

SID SEASON NUMBER BASIN SUBBASIN NAME ISO_TIME NATURE LAT LON WMO_WIND WMO_PRES WMO_AGENCY TRACK_TYPE DIST2LAND LANDFALL IFLAG USA_AGENCY USA_ATCF_ID USA_LAT USA_LON USA_RECORD USA_STATUS USA_WIND USA_PRES USA_SSHS USA_R34_NE USA_R34_SE USA_R34_SW USA_R34_NW USA_R50_NE USA_R50_SE USA_R50_SW USA_R50_NW USA_R64_NE USA_R64_SE USA_R64_SW USA_R64_NW USA_POCI USA_ROCI USA_RMW USA_EYE TOKYO_LAT TOKYO_LON TOKYO_GRADE TOKYO_WIND TOKYO_PRES TOKYO_R50_DIR TOKYO_R50_LONG TOKYO_R50_SHORT TOKYO_R30_DIR TOKYO_R30_LONG TOKYO_R30_SHORT TOKYO_LAND CMA_LAT CMA_LON CMA_CAT CMA_WIND CMA_PRES HKO_LAT HKO_LON HKO_CAT HKO_WIND HKO_PRES NEWDELHI_LAT NEWDELHI_LON NEWDELHI_GRADE NEWDELHI_WIND NEWDELHI_PRES NEWDELHI_CI NEWDELHI_DP NEWDELHI_POCI REUNION_LAT REUNION_LON REUNION_TYPE REUNION_WIND REUNION_PRES REUNION_TNUM REUNION_CI REUNION_RMW REUNION_R34_NE REUNION_R34_SE REUNION_R34_SW REUNION_R34_NW REUNION_R50_NE REUNION_R50_SE REUNION_R50_SW REUNION_R50_NW REUNION_R64_NE REUNION_R64_SE REUNION_R64_SW REUNION_R64_NW BOM_LAT BOM_LON BOM_TYPE BOM_WIND BOM_PRES BOM_TNUM BOM_CI BOM_RMW BOM_R34_NE BOM_R34_SE BOM_R34_SW BOM_R34_NW BOM_R50_NE BOM_R50_SE BOM_R50_SW BOM_R50_NW BOM_R64_NE BOM_R64_SE BOM_R64_SW BOM_R64_NW BOM_ROCI BOM_POCI BOM_EYE BOM_POS_METHOD BOM_PRES_METHOD NADI_LAT NADI_LON NADI_CAT NADI_WIND NADI_PRES WELLINGTON_LAT WELLINGTON_LON WELLINGTON_WIND WELLINGTON_PRES DS824_LAT DS824_LON DS824_STAGE DS824_WIND DS824_PRES TD9636_LAT TD9636_LON TD9636_STAGE TD9636_WIND TD9636_PRES TD9635_LAT TD9635_LON TD9635_WIND TD9635_PRES TD9635_ROCI NEUMANN_LAT NEUMANN_LON NEUMANN_CLASS NEUMANN_WIND NEUMANN_PRES MLC_LAT MLC_LON MLC_CLASS MLC_WIND MLC_PRES USA_GUST BOM_GUST BOM_GUST_PER REUNION_GUST REUNION_GUST_PER USA_SEAHGT USA_SEARAD_NE USA_SEARAD_SE USA_SEARAD_SW USA_SEARAD_NW STORM_SPEED STORM_DIR
1964004S15203 1964 2 SP MM NOT_NAMED 1964-01-04 00:00:00 TS -14.8000 -157.300 main 1609 1545 O________OO_O_ jtwc_sh SH061964 -14.8000 -157.300 -1 -14.8000 202.700 TC 35 -14.8000 -157.300 2 -14.8000 -157.300 TC 30 13 262
1964004S15203 1964 2 SP MM NOT_NAMED 1964-01-04 03:00:00 TS -14.8870 -157.959 main 1535 1471 P________PP_P_ SH061964 -14.8754 -157.963 -1 -14.8754 -157.963 TC 35 -14.9220 -157.947 2 -14.8754 -157.963 TC 32 13 260
1964004S15203 1964 2 SP MM NOT_NAMED 1964-01-04 06:00:00 TS -15.0161 -158.594 main 1471 1408 O________OP_O_ jtwc_sh SH061964 -15.0000 -158.600 -1 -15.0000 201.400 TC 35 -15.0644 -158.575 2 -15.0000 -158.600 TC 35 12 254
1964004S15203 1964 2 SP MM NOT_NAMED 1964-01-04 09:00:00 TS -15.2217 -159.182 main 1408 1358 P________PP_P_ SH061964 -15.2124 -159.188 -1 -15.2124 -159.188 TC 35 -15.2496 -159.166 2 -15.2124 -159.188 TC 35 12 246
1964004S15203 1964 2 SP MM NOT_NAMED 1964-01-04 12:00:00 TS -15.5000 -159.700 main 1358 1320 O________OO_O_ jtwc_sh SH061964 -15.5000 -159.700 -1 -15.5000 200.300 TC 35 -15.5000 -159.700 2 -15.5000 -159.700 TC 35 11 237
1964004S15203 1964 2 SP MM NOT_NAMED 1964-01-04 15:00:00 TS -15.8277 -160.133 main 1320 1283 P________PP_P_ SH061964 -15.8273 -160.123 -1 -15.8273 -160.123 TC 35 -15.8289 -160.165 2 -15.8273 -160.123 TC 35 11 228
1964004S15203 1964 2 SP MM NOT_NAMED 1964-01-04 18:00:00 TS -16.2029 -160.519 main 1285 1250 O________OP_O_ jtwc_sh SH061964 -16.2000 -160.500 -1 -16.2000 199.500 TC 35 -16.2116 -160.575 2 -16.2000 -160.500 TC 35 11 224
1964004S15203 1964 2 SP MM NOT_NAMED 1964-01-04 21:00:00 TS -16.6090 -160.917 main 1252 1222 P________PP_P_ SH061964 -16.6075 -160.907 -1 -16.6075 -160.907 TC 35 -16.6135 -160.947 2 -16.6075 -160.907 TC 35 11 223
1964004S15203 1964 2 SP MM NOT_NAMED 1964-01-05 00:00:00 TS -17.0000 -161.300 main 1222 1197 O________OO_O_ jtwc_sh SH061964 -17.0000 -161.300 -1 -17.0000 198.700 TC 35 -17.0000 -161.300 2 -17.0000 -161.300 TC 35 10 225
1964004S15203 1964 2 SP MM NOT_NAMED 1964-01-05 03:00:00 TS -17.3114 -161.664 main 1191 1168 P________PP_P_ SH061964 -17.3149 -161.658 -1 -17.3149 -161.658 TC 35 -17.3011 -161.681 2 -17.3149 -161.658 TC 37 9 229
1964004S15203 1964 2 SP MM NOT_NAMED 1964-01-05 06:00:00 TS -17.5962 -162.011 main 1171 1144 O________OP_O_ jtwc_sh SH061964 -17.6000 -162.000 -1 -17.6000 198.000 TC 35 -17.5849 -162.046 2 -17.6000 -162.000 TC 40 9 230
1964004S15203 1964 2 SP MM NOT_NAMED 1964-01-05 09:00:00 TS -17.8828 -162.371 main 1144 1128 P________PP_P_ SH061964 -17.8850 -162.365 -1 -17.8850 -162.365 TC 35 -17.8762 -162.388 2 -17.8850 -162.365 TC 42 9 227
1964004S15203 1964 2 SP MM NOT_NAMED 1964-01-05 12:00:00 TS -18.2000 -162.700 main 1128 1118 O________OO_O_ jtwc_sh SH061964 -18.2000 -162.700 -1 -18.2000 197.300 TC 35 -18.2000 -162.700 2 -18.2000 -162.700 TC 45 9 219
1964004S15203 1964 2 SP MM NOT_NAMED 1964-01-05 15:00:00 TS -18.5833 -162.968 main 1119 1115 P________PP_P_ SH061964 -18.5774 -162.965 -1 -18.5774 -162.965 TC 35 -18.6009 -162.975 2 -18.5774 -162.965 TC 45 9 211
1964004S15203 1964 2 SP MM NOT_NAMED 1964-01-05 18:00:00 TS -19.0086 -163.206 main 1122 1119 O________OP_O_ jtwc_sh SH061964 -19.0000 -163.200 -1 -19.0000 196.800 TC 35 -19.0345 -163.223 2 -19.0000 -163.200 TC 45 10 207
1964004S15203 1964 2 SP MM NOT_NAMED 1964-01-05 21:00:00 TS -19.4621 -163.452 main 1124 1124 P________PP_P_ SH061964 -19.4575 -163.450 -1 -19.4575 -163.450 TC 35 -19.4759 -163.459 2 -19.4575 -163.450 TC 45 10 208
1964004S15203 1964 2 SP MM NOT_NAMED 1964-01-06 00:00:00 TS -19.9000 -163.700 main 1132 1131 O________OO_O_ jtwc_sh SH061964 -19.9000 -163.700 -1 -19.9000 196.300 TC 35 -19.9000 -163.700 2 -19.9000 -163.700 TC 45 9 210
1964004S15203 1964 2 SP MM NOT_NAMED 1964-01-06 03:00:00 TS -20.2686 -163.946 main 1143 1133 P________PP_P_ SH061964 -20.2649 -163.943 -1 -20.2649 -163.943 TC 35 -20.2794 -163.956 2 -20.2649 -163.943 TC 42 9 214
1964004S15203 1964 2 SP MM NOT_NAMED 1964-01-06 06:00:00 TS -20.6093 -164.205 main 1140 1139 O________OP_O_ jtwc_sh SH061964 -20.6000 -164.200 -1 -20.6000 195.800 TC 35 -20.6371 -164.221 2 -20.6000 -164.200 TC 40 9 216
1964004S15203 1964 2 SP MM NOT_NAMED 1964-01-06 09:00:00 TS -20.9584 -164.489 main 1147 1139 P________PP_P_ SH061964 -20.9499 -164.485 -1 -20.9499 -164.485 TC 35 -20.9763 -164.500 2 -20.9574 -164.485 TC 40 9 219
1964004S15203 1964 2 SP MM NOT_NAMED 1964-01-06 12:00:00 TS -21.3000 -164.800 main 1148 1148 O________OO_O_ jtwc_sh SH061964 -21.3000 -164.800 -1 -21.3000 195.200 TC 35 -21.3000 -164.800 2 -21.3000 -164.800 TC 40 9 222
1964004S15203 1964 2 SP MM NOT_NAMED 1964-01-06 15:00:00 TS -21.6431 -165.144 main 1151 1148 P________PP_P_ SH061964 -21.6650 -165.143 -1 -21.6650 -165.143 TC 35 -21.6349 -165.148 2 -21.6075 -165.143 TC 37 9 225
1964004S15203 1964 2 SP MM NOT_NAMED 1964-01-06 18:00:00 TS -21.9632 -165.504 main 1159 1152 O________OP_O_ jtwc_sh SH061964 -22.0000 -165.500 -1 -22.0000 194.500 TC 35 -21.9529 -165.515 2 -21.9000 -165.500 TC 35 9 228
1964004S15203 1964 2 SP MM NOT_NAMED 1964-01-06 21:00:00 TS -22.2530 -165.867 main 1160 1154 P________PP_P_ SH061964 -22.2725 -165.865 -1 -22.2725 -165.865 TC 35 -22.2443 -165.873 2 -22.2225 -165.865 TC 35 8 230
1964004S15203 1964 2 SP MM NOT_NAMED 1964-01-07 00:00:00 TS -22.5000 -166.200 main 1161 1155 O________OO_O_ jtwc_sh SH061964 -22.5000 -166.200 -1 -22.5000 193.800 TC 35 -22.5000 -166.200 2 -22.5000 -166.200 TC 35 7 231
1964004S15203 1964 2 SP MM NOT_NAMED 1964-01-07 03:00:00 TS -22.7003 -166.469 main 1163 1161 P________PP_P_ SH061964 -22.7149 -166.473 -1 -22.7149 -166.473 TC 35 -22.7064 -166.458 2 -22.6649 -166.473 TC 35 6 231
1964004S15203 1964 2 SP MM NOT_NAMED 1964-01-07 06:00:00 TS -22.8699 -166.695 main 1171 1166 O________OP_O_ jtwc_sh SH061964 -22.9000 -166.700 -1 -22.9000 193.300 TC 35 -22.8794 -166.681 2 -22.8000 -166.700 TC 35 5 230
1964004S15203 1964 2 SP MM NOT_NAMED 1964-01-07 09:00:00 TS -23.0325 -166.897 main 1170 1170 P________PP_P_ SH061964 -23.0499 -166.900 -1 -23.0499 -166.900 TC 35 -23.0377 -166.889 2 -22.9924 -166.900 TC 35 5 229
1964004S15203 1964 2 SP MM NOT_NAMED 1964-01-07 12:00:00 TS -23.2000 -167.100 main 1180 1176 O________OO_O_ jtwc_sh SH061964 -23.2000 -167.100 -1 -23.2000 192.900 TC 35 -23.2000 -167.100 2 -23.2000 -167.100 TC 35 5 228
1964004S15203 1964 2 SP MM NOT_NAMED 1964-01-07 15:00:00 TS -23.3914 -167.339 main 1191 1186 P________PP_P_ SH061964 -23.3925 -167.343 -1 -23.3925 -167.343 TC 35 -23.3807 -167.330 2 -23.4000 -167.343 TC 35 6 229
1964004S15203 1964 2 SP MM NOT_NAMED 1964-01-07 18:00:00 TS -23.5945 -167.594 main 1198 1194 O________OP_O_ jtwc_sh SH061964 -23.6000 -167.600 -1 -23.6000 192.400 TC 35 -23.5781 -167.576 2 -23.6000 -167.600 TC 35 6 229
1964004S15203 1964 2 SP MM NOT_NAMED 1964-01-07 21:00:00 TS -23.7979 -167.848 main 1210 1206 P________PP_P_ SH061964 -23.8026 -167.852 -1 -23.8026 -167.852 TC 35 -23.7864 -167.835 2 -23.8001 -167.852 TC 32 6 229
1964004S15203 1964 2 SP MM NOT_NAMED 1964-01-08 00:00:00 TS -24.0000 -168.100 main 1219 O________OO_O_ jtwc_sh SH061964 -24.0000 -168.100 -1 -24.0000 191.900 TC 35 -24.0000 -168.100 2 -24.0000 -168.100 TC 30 6 229

Digital Typhoon Data and Search

About IBTrACS Database

This database is a web-friendly format of International Best Track Archive for Climate Stewardship (IBTrACS), a global best track data archive curated by NOAA dating back to 1842.

Updated: 2021-10-08